sensor_id;sensor_type;location;lat;lon;timestamp;temperature;humidity
46159;DHT22;74657;45.650;25.590;2024-03-08T00:00:05;2.80;98.70
46159;DHT22;74657;45.650;25.590;2024-03-08T00:02:36;2.70;99.00
46159;DHT22;74657;45.650;25.590;2024-03-08T00:04:59;2.80;99.00
46159;DHT22;74657;45.650;25.590;2024-03-08T00:07:22;2.90;98.80
46159;DHT22;74657;45.650;25.590;2024-03-08T00:09:46;2.90;98.70
46159;DHT22;74657;45.650;25.590;2024-03-08T00:12:09;2.90;98.70
46159;DHT22;74657;45.650;25.590;2024-03-08T00:14:35;2.90;98.50
46159;DHT22;74657;45.650;25.590;2024-03-08T00:16:59;2.90;98.50
46159;DHT22;74657;45.650;25.590;2024-03-08T00:19:22;2.90;98.60
46159;DHT22;74657;45.650;25.590;2024-03-08T00:21:46;2.90;98.50
46159;DHT22;74657;45.650;25.590;2024-03-08T00:24:09;2.80;98.70
46159;DHT22;74657;45.650;25.590;2024-03-08T00:26:34;2.80;98.30
46159;DHT22;74657;45.650;25.590;2024-03-08T00:28:57;2.80;98.50
46159;DHT22;74657;45.650;25.590;2024-03-08T00:31:22;2.70;98.60
46159;DHT22;74657;45.650;25.590;2024-03-08T00:33:45;2.70;99.00
46159;DHT22;74657;45.650;25.590;2024-03-08T00:36:09;2.70;99.10
46159;DHT22;74657;45.650;25.590;2024-03-08T00:38:32;2.60;99.10
46159;DHT22;74657;45.650;25.590;2024-03-08T00:40:55;2.60;98.90
46159;DHT22;74657;45.650;25.590;2024-03-08T00:43:19;2.60;98.80
46159;DHT22;74657;45.650;25.590;2024-03-08T00:45:43;2.60;98.90
46159;DHT22;74657;45.650;25.590;2024-03-08T00:48:08;2.60;99.10
46159;DHT22;74657;45.650;25.590;2024-03-08T00:50:32;2.50;99.30
46159;DHT22;74657;45.650;25.590;2024-03-08T00:52:56;2.50;99.20
46159;DHT22;74657;45.650;25.590;2024-03-08T00:55:20;2.50;99.30
46159;DHT22;74657;45.650;25.590;2024-03-08T00:57:43;2.50;99.30
46159;DHT22;74657;45.650;25.590;2024-03-08T01:00:07;2.50;99.50
46159;DHT22;74657;45.650;25.590;2024-03-08T01:02:33;2.50;99.50
46159;DHT22;74657;45.650;25.590;2024-03-08T01:04:59;2.50;99.70
46159;DHT22;74657;45.650;25.590;2024-03-08T01:07:22;2.50;99.60
46159;DHT22;74657;45.650;25.590;2024-03-08T01:09:45;2.50;99.80
46159;DHT22;74657;45.650;25.590;2024-03-08T01:12:09;2.50;99.80
46159;DHT22;74657;45.650;25.590;2024-03-08T01:14:32;2.50;99.50
46159;DHT22;74657;45.650;25.590;2024-03-08T01:16:55;2.60;99.50
46159;DHT22;74657;45.650;25.590;2024-03-08T01:19:18;2.60;99.60
46159;DHT22;74657;45.650;25.590;2024-03-08T01:21:43;2.60;99.20
46159;DHT22;74657;45.650;25.590;2024-03-08T01:24:07;2.60;99.50
46159;DHT22;74657;45.650;25.590;2024-03-08T01:26:31;2.60;99.40
46159;DHT22;74657;45.650;25.590;2024-03-08T01:28:56;2.60;99.40
46159;DHT22;74657;45.650;25.590;2024-03-08T01:31:19;2.60;99.40
46159;DHT22;74657;45.650;25.590;2024-03-08T01:33:42;2.60;99.10
46159;DHT22;74657;45.650;25.590;2024-03-08T01:36:06;2.70;99.10
46159;DHT22;74657;45.650;25.590;2024-03-08T01:38:31;2.60;99.10
46159;DHT22;74657;45.650;25.590;2024-03-08T01:40:55;2.60;99.00
46159;DHT22;74657;45.650;25.590;2024-03-08T01:43:19;2.60;99.00
46159;DHT22;74657;45.650;25.590;2024-03-08T01:45:43;2.50;98.90
46159;DHT22;74657;45.650;25.590;2024-03-08T01:48:06;2.60;99.00
46159;DHT22;74657;45.650;25.590;2024-03-08T01:50:30;2.60;99.00
46159;DHT22;74657;45.650;25.590;2024-03-08T01:52:53;2.60;99.10
46159;DHT22;74657;45.650;25.590;2024-03-08T01:55:23;2.60;99.20
46159;DHT22;74657;45.650;25.590;2024-03-08T01:57:46;2.60;99.40
46159;DHT22;74657;45.650;25.590;2024-03-08T02:00:10;2.50;99.20
46159;DHT22;74657;45.650;25.590;2024-03-08T02:02:34;2.60;99.30
46159;DHT22;74657;45.650;25.590;2024-03-08T02:04:58;2.60;99.10
46159;DHT22;74657;45.650;25.590;2024-03-08T02:07:23;2.60;99.40
46159;DHT22;74657;45.650;25.590;2024-03-08T02:09:46;2.60;99.80
46159;DHT22;74657;45.650;25.590;2024-03-08T02:12:11;2.60;99.40
46159;DHT22;74657;45.650;25.590;2024-03-08T02:14:35;2.50;99.20
46159;DHT22;74657;45.650;25.590;2024-03-08T02:17:01;2.50;99.40
46159;DHT22;74657;45.650;25.590;2024-03-08T02:19:24;2.50;99.20
46159;DHT22;74657;45.650;25.590;2024-03-08T02:21:49;2.50;99.50
46159;DHT22;74657;45.650;25.590;2024-03-08T02:24:12;2.40;99.50
46159;DHT22;74657;45.650;25.590;2024-03-08T02:26:36;2.40;99.60
46159;DHT22;74657;45.650;25.590;2024-03-08T02:29:00;2.40;99.50
46159;DHT22;74657;45.650;25.590;2024-03-08T02:31:24;2.50;99.40
46159;DHT22;74657;45.650;25.590;2024-03-08T02:33:47;2.50;99.60
46159;DHT22;74657;45.650;25.590;2024-03-08T02:36:10;2.40;99.50
46159;DHT22;74657;45.650;25.590;2024-03-08T02:38:35;2.40;99.60
46159;DHT22;74657;45.650;25.590;2024-03-08T02:40:59;2.40;99.90
46159;DHT22;74657;45.650;25.590;2024-03-08T02:43:23;2.50;99.80
46159;DHT22;74657;45.650;25.590;2024-03-08T02:45:47;2.40;99.50
46159;DHT22;74657;45.650;25.590;2024-03-08T02:48:11;2.40;99.50
46159;DHT22;74657;45.650;25.590;2024-03-08T02:50:35;2.40;99.70
46159;DHT22;74657;45.650;25.590;2024-03-08T02:52:59;2.40;99.80
46159;DHT22;74657;45.650;25.590;2024-03-08T02:55:24;2.40;99.80
46159;DHT22;74657;45.650;25.590;2024-03-08T02:57:47;2.40;99.80
46159;DHT22;74657;45.650;25.590;2024-03-08T03:00:11;2.40;99.90
46159;DHT22;74657;45.650;25.590;2024-03-08T03:02:37;2.40;99.90
46159;DHT22;74657;45.650;25.590;2024-03-08T03:05:01;2.40;99.90
46159;DHT22;74657;45.650;25.590;2024-03-08T03:07:27;2.40;99.80
46159;DHT22;74657;45.650;25.590;2024-03-08T03:09:51;2.40;99.90
46159;DHT22;74657;45.650;25.590;2024-03-08T03:12:16;2.40;99.80
46159;DHT22;74657;45.650;25.590;2024-03-08T03:14:40;2.40;99.50
46159;DHT22;74657;45.650;25.590;2024-03-08T03:17:03;2.40;99.40
46159;DHT22;74657;45.650;25.590;2024-03-08T03:19:26;2.40;99.80
46159;DHT22;74657;45.650;25.590;2024-03-08T03:21:51;2.40;99.80
46159;DHT22;74657;45.650;25.590;2024-03-08T03:24:14;2.40;99.60
46159;DHT22;74657;45.650;25.590;2024-03-08T03:26:38;2.40;99.80
46159;DHT22;74657;45.650;25.590;2024-03-08T03:29:04;2.40;99.70
46159;DHT22;74657;45.650;25.590;2024-03-08T03:31:28;2.40;99.90
46159;DHT22;74657;45.650;25.590;2024-03-08T03:33:52;2.40;99.90
46159;DHT22;74657;45.650;25.590;2024-03-08T03:36:15;2.40;99.90
46159;DHT22;74657;45.650;25.590;2024-03-08T03:38:38;2.40;99.90
46159;DHT22;74657;45.650;25.590;2024-03-08T03:41:01;2.40;99.90
46159;DHT22;74657;45.650;25.590;2024-03-08T03:43:32;2.40;99.90
46159;DHT22;74657;45.650;25.590;2024-03-08T03:45:57;2.40;99.90
46159;DHT22;74657;45.650;25.590;2024-03-08T03:48:20;2.50;99.90
46159;DHT22;74657;45.650;25.590;2024-03-08T03:50:43;2.40;99.90
46159;DHT22;74657;45.650;25.590;2024-03-08T03:53:07;2.40;99.90
46159;DHT22;74657;45.650;25.590;2024-03-08T03:55:32;2.40;99.90
46159;DHT22;74657;45.650;25.590;2024-03-08T03:57:55;2.40;99.90
46159;DHT22;74657;45.650;25.590;2024-03-08T04:00:20;2.40;99.90
46159;DHT22;74657;45.650;25.590;2024-03-08T04:02:45;2.30;99.90
46159;DHT22;74657;45.650;25.590;2024-03-08T04:05:09;2.40;99.90
46159;DHT22;74657;45.650;25.590;2024-03-08T04:07:33;2.40;99.90
46159;DHT22;74657;45.650;25.590;2024-03-08T04:09:59;2.40;99.90
46159;DHT22;74657;45.650;25.590;2024-03-08T04:12:22;2.40;99.90
46159;DHT22;74657;45.650;25.590;2024-03-08T04:14:46;2.40;99.90
46159;DHT22;74657;45.650;25.590;2024-03-08T04:17:09;2.40;99.90
46159;DHT22;74657;45.650;25.590;2024-03-08T04:19:35;2.40;99.90
46159;DHT22;74657;45.650;25.590;2024-03-08T04:21:58;2.40;99.90
46159;DHT22;74657;45.650;25.590;2024-03-08T04:24:22;2.40;99.90
46159;DHT22;74657;45.650;25.590;2024-03-08T04:26:46;2.30;99.90
46159;DHT22;74657;45.650;25.590;2024-03-08T04:29:10;2.40;99.90
46159;DHT22;74657;45.650;25.590;2024-03-08T04:31:36;2.40;99.90
46159;DHT22;74657;45.650;25.590;2024-03-08T04:33:59;2.40;99.90
46159;DHT22;74657;45.650;25.590;2024-03-08T04:36:24;2.40;99.90
46159;DHT22;74657;45.650;25.590;2024-03-08T04:38:47;2.40;99.90
46159;DHT22;74657;45.650;25.590;2024-03-08T04:41:10;2.30;99.90
46159;DHT22;74657;45.650;25.590;2024-03-08T04:43:34;2.40;99.90
46159;DHT22;74657;45.650;25.590;2024-03-08T04:45:57;2.40;99.90
46159;DHT22;74657;45.650;25.590;2024-03-08T04:48:21;2.40;99.90
46159;DHT22;74657;45.650;25.590;2024-03-08T04:50:45;2.40;99.90
46159;DHT22;74657;45.650;25.590;2024-03-08T04:53:09;2.40;99.90
46159;DHT22;74657;45.650;25.590;2024-03-08T04:55:32;2.40;99.90
46159;DHT22;74657;45.650;25.590;2024-03-08T04:57:56;2.40;99.90
46159;DHT22;74657;45.650;25.590;2024-03-08T05:00:19;2.50;99.90
46159;DHT22;74657;45.650;25.590;2024-03-08T05:02:43;2.50;99.90
46159;DHT22;74657;45.650;25.590;2024-03-08T05:05:06;2.50;99.90
46159;DHT22;74657;45.650;25.590;2024-03-08T05:07:30;2.50;99.90
46159;DHT22;74657;45.650;25.590;2024-03-08T05:09:55;2.50;99.90
46159;DHT22;74657;45.650;25.590;2024-03-08T05:12:19;2.50;99.90
46159;DHT22;74657;45.650;25.590;2024-03-08T05:14:44;2.50;99.90
46159;DHT22;74657;45.650;25.590;2024-03-08T05:17:11;2.60;99.90
46159;DHT22;74657;45.650;25.590;2024-03-08T05:19:36;2.60;99.90
46159;DHT22;74657;45.650;25.590;2024-03-08T05:22:00;2.70;99.90
46159;DHT22;74657;45.650;25.590;2024-03-08T05:24:23;2.70;99.90
46159;DHT22;74657;45.650;25.590;2024-03-08T05:26:48;2.80;99.80
46159;DHT22;74657;45.650;25.590;2024-03-08T05:29:11;2.80;99.70
46159;DHT22;74657;45.650;25.590;2024-03-08T05:31:42;2.80;99.80
46159;DHT22;74657;45.650;25.590;2024-03-08T05:34:05;2.80;99.60
46159;DHT22;74657;45.650;25.590;2024-03-08T05:36:32;2.90;99.60
46159;DHT22;74657;45.650;25.590;2024-03-08T05:38:55;2.90;99.50
46159;DHT22;74657;45.650;25.590;2024-03-08T05:41:18;3.00;99.20
46159;DHT22;74657;45.650;25.590;2024-03-08T05:43:43;3.10;99.20
46159;DHT22;74657;45.650;25.590;2024-03-08T05:46:06;3.10;99.10
46159;DHT22;74657;45.650;25.590;2024-03-08T05:48:30;3.10;98.90
46159;DHT22;74657;45.650;25.590;2024-03-08T05:50:54;3.10;99.10
46159;DHT22;74657;45.650;25.590;2024-03-08T05:53:18;3.20;98.80
46159;DHT22;74657;45.650;25.590;2024-03-08T05:55:41;3.30;98.90
46159;DHT22;74657;45.650;25.590;2024-03-08T05:58:05;3.30;98.80
46159;DHT22;74657;45.650;25.590;2024-03-08T06:00:31;3.40;98.50
46159;DHT22;74657;45.650;25.590;2024-03-08T06:02:54;3.40;98.30
46159;DHT22;74657;45.650;25.590;2024-03-08T06:05:17;3.40;98.40
46159;DHT22;74657;45.650;25.590;2024-03-08T06:07:41;3.50;98.40
46159;DHT22;74657;45.650;25.590;2024-03-08T06:10:06;3.50;98.30
46159;DHT22;74657;45.650;25.590;2024-03-08T06:12:31;3.60;98.20
46159;DHT22;74657;45.650;25.590;2024-03-08T06:14:58;3.70;98.00
46159;DHT22;74657;45.650;25.590;2024-03-08T06:17:23;3.70;97.70
46159;DHT22;74657;45.650;25.590;2024-03-08T06:19:48;3.80;97.80
46159;DHT22;74657;45.650;25.590;2024-03-08T06:22:11;3.80;97.70
46159;DHT22;74657;45.650;25.590;2024-03-08T06:24:35;3.90;97.60
46159;DHT22;74657;45.650;25.590;2024-03-08T06:26:59;4.00;97.70
46159;DHT22;74657;45.650;25.590;2024-03-08T06:29:23;4.00;97.20
46159;DHT22;74657;45.650;25.590;2024-03-08T06:31:46;4.20;97.10
46159;DHT22;74657;45.650;25.590;2024-03-08T06:34:11;4.20;97.10
46159;DHT22;74657;45.650;25.590;2024-03-08T06:36:36;4.20;96.90
46159;DHT22;74657;45.650;25.590;2024-03-08T06:39:00;4.30;96.40
46159;DHT22;74657;45.650;25.590;2024-03-08T06:41:31;4.40;96.60
46159;DHT22;74657;45.650;25.590;2024-03-08T06:43:58;4.50;96.80
46159;DHT22;74657;45.650;25.590;2024-03-08T06:46:21;4.50;96.50
46159;DHT22;74657;45.650;25.590;2024-03-08T06:48:44;4.50;96.20
46159;DHT22;74657;45.650;25.590;2024-03-08T06:51:09;4.50;95.90
46159;DHT22;74657;45.650;25.590;2024-03-08T06:53:33;4.60;95.60
46159;DHT22;74657;45.650;25.590;2024-03-08T06:55:58;4.70;95.60
46159;DHT22;74657;45.650;25.590;2024-03-08T06:58:21;4.80;95.30
46159;DHT22;74657;45.650;25.590;2024-03-08T07:00:44;4.90;95.30
46159;DHT22;74657;45.650;25.590;2024-03-08T07:03:09;5.00;94.70
46159;DHT22;74657;45.650;25.590;2024-03-08T07:05:34;5.10;95.00
46159;DHT22;74657;45.650;25.590;2024-03-08T07:07:59;5.20;95.20
46159;DHT22;74657;45.650;25.590;2024-03-08T07:10:22;5.30;94.90
46159;DHT22;74657;45.650;25.590;2024-03-08T07:12:46;5.40;94.80
46159;DHT22;74657;45.650;25.590;2024-03-08T07:15:10;5.50;94.50
46159;DHT22;74657;45.650;25.590;2024-03-08T07:17:35;5.60;94.10
46159;DHT22;74657;45.650;25.590;2024-03-08T07:19:59;5.70;94.10
46159;DHT22;74657;45.650;25.590;2024-03-08T07:22:25;5.70;93.70
46159;DHT22;74657;45.650;25.590;2024-03-08T07:24:50;5.60;93.70
46159;DHT22;74657;45.650;25.590;2024-03-08T07:27:32;5.80;93.40
46159;DHT22;74657;45.650;25.590;2024-03-08T07:29:55;5.80;93.20
46159;DHT22;74657;45.650;25.590;2024-03-08T07:32:22;5.90;93.00
46159;DHT22;74657;45.650;25.590;2024-03-08T07:34:47;6.00;93.20
46159;DHT22;74657;45.650;25.590;2024-03-08T07:37:12;6.10;92.90
46159;DHT22;74657;45.650;25.590;2024-03-08T07:39:35;6.10;92.80
46159;DHT22;74657;45.650;25.590;2024-03-08T07:42:00;6.20;92.60
46159;DHT22;74657;45.650;25.590;2024-03-08T07:44:23;6.30;92.40
46159;DHT22;74657;45.650;25.590;2024-03-08T07:46:46;6.40;92.20
46159;DHT22;74657;45.650;25.590;2024-03-08T07:49:10;6.50;91.70
46159;DHT22;74657;45.650;25.590;2024-03-08T07:51:33;6.60;92.30
46159;DHT22;74657;45.650;25.590;2024-03-08T07:53:57;6.60;91.50
46159;DHT22;74657;45.650;25.590;2024-03-08T07:56:22;6.60;91.40
46159;DHT22;74657;45.650;25.590;2024-03-08T07:58:48;6.70;91.70
46159;DHT22;74657;45.650;25.590;2024-03-08T08:01:16;6.60;92.10
46159;DHT22;74657;45.650;25.590;2024-03-08T08:03:40;6.60;92.10
46159;DHT22;74657;45.650;25.590;2024-03-08T08:06:04;6.70;91.60
46159;DHT22;74657;45.650;25.590;2024-03-08T08:08:28;6.80;91.30
46159;DHT22;74657;45.650;25.590;2024-03-08T08:10:50;6.90;91.30
46159;DHT22;74657;45.650;25.590;2024-03-08T08:13:13;6.90;91.00
46159;DHT22;74657;45.650;25.590;2024-03-08T08:15:39;6.90;91.40
46159;DHT22;74657;45.650;25.590;2024-03-08T08:18:02;6.90;91.10
46159;DHT22;74657;45.650;25.590;2024-03-08T08:20:28;7.00;91.20
46159;DHT22;74657;45.650;25.590;2024-03-08T08:22:52;7.00;91.00
46159;DHT22;74657;45.650;25.590;2024-03-08T08:25:17;7.00;90.80
46159;DHT22;74657;45.650;25.590;2024-03-08T08:27:42;7.10;90.70
46159;DHT22;74657;45.650;25.590;2024-03-08T08:30:06;7.20;90.70
46159;DHT22;74657;45.650;25.590;2024-03-08T08:32:32;7.30;90.10
46159;DHT22;74657;45.650;25.590;2024-03-08T08:34:55;7.40;90.00
46159;DHT22;74657;45.650;25.590;2024-03-08T08:37:21;7.60;90.40
46159;DHT22;74657;45.650;25.590;2024-03-08T08:39:47;7.60;90.10
46159;DHT22;74657;45.650;25.590;2024-03-08T08:42:11;7.50;90.00
46159;DHT22;74657;45.650;25.590;2024-03-08T08:44:34;7.60;90.00
46159;DHT22;74657;45.650;25.590;2024-03-08T08:46:57;7.80;88.60
46159;DHT22;74657;45.650;25.590;2024-03-08T08:49:34;7.70;88.30
46159;DHT22;74657;45.650;25.590;2024-03-08T08:51:57;7.70;87.80
46159;DHT22;74657;45.650;25.590;2024-03-08T08:54:32;7.70;89.40
46159;DHT22;74657;45.650;25.590;2024-03-08T08:56:55;7.50;89.20
46159;DHT22;74657;45.650;25.590;2024-03-08T08:59:18;7.40;88.50
46159;DHT22;74657;45.650;25.590;2024-03-08T09:01:43;7.40;87.80
46159;DHT22;74657;45.650;25.590;2024-03-08T09:04:08;7.50;89.60
46159;DHT22;74657;45.650;25.590;2024-03-08T09:06:35;7.60;89.40
46159;DHT22;74657;45.650;25.590;2024-03-08T09:08:59;7.70;89.30
46159;DHT22;74657;45.650;25.590;2024-03-08T09:11:26;7.80;88.90
46159;DHT22;74657;45.650;25.590;2024-03-08T09:13:51;7.90;88.60
46159;DHT22;74657;45.650;25.590;2024-03-08T09:16:14;8.10;88.10
46159;DHT22;74657;45.650;25.590;2024-03-08T09:18:38;8.20;87.50
46159;DHT22;74657;45.650;25.590;2024-03-08T09:21:01;8.40;86.40
46159;DHT22;74657;45.650;25.590;2024-03-08T09:23:26;8.60;86.60
46159;DHT22;74657;45.650;25.590;2024-03-08T09:25:51;8.90;86.00
46159;DHT22;74657;45.650;25.590;2024-03-08T09:28:15;9.30;84.50
46159;DHT22;74657;45.650;25.590;2024-03-08T09:30:38;9.70;82.10
46159;DHT22;74657;45.650;25.590;2024-03-08T09:33:08;10.10;80.80
46159;DHT22;74657;45.650;25.590;2024-03-08T09:35:31;10.70;79.60
46159;DHT22;74657;45.650;25.590;2024-03-08T09:37:55;11.30;78.30
46159;DHT22;74657;45.650;25.590;2024-03-08T09:40:20;11.60;76.80
46159;DHT22;74657;45.650;25.590;2024-03-08T09:42:46;11.70;76.20
46159;DHT22;74657;45.650;25.590;2024-03-08T09:45:11;11.60;75.20
46159;DHT22;74657;45.650;25.590;2024-03-08T09:47:38;11.90;75.20
46159;DHT22;74657;45.650;25.590;2024-03-08T09:50:02;12.00;73.90
46159;DHT22;74657;45.650;25.590;2024-03-08T09:52:27;12.80;73.00
46159;DHT22;74657;45.650;25.590;2024-03-08T09:54:52;14.50;68.00
46159;DHT22;74657;45.650;25.590;2024-03-08T09:57:18;14.40;66.90
46159;DHT22;74657;45.650;25.590;2024-03-08T09:59:42;14.00;67.50
46159;DHT22;74657;45.650;25.590;2024-03-08T10:02:15;13.90;69.10
46159;DHT22;74657;45.650;25.590;2024-03-08T10:04:40;13.80;68.20
46159;DHT22;74657;45.650;25.590;2024-03-08T10:07:04;13.60;67.60
46159;DHT22;74657;45.650;25.590;2024-03-08T10:09:28;13.90;67.00
46159;DHT22;74657;45.650;25.590;2024-03-08T10:11:53;13.90;66.60
46159;DHT22;74657;45.650;25.590;2024-03-08T10:14:21;14.80;65.50
46159;DHT22;74657;45.650;25.590;2024-03-08T10:16:45;16.20;63.10
46159;DHT22;74657;45.650;25.590;2024-03-08T10:19:08;16.70;62.20
46159;DHT22;74657;45.650;25.590;2024-03-08T10:21:34;17.00;61.00
46159;DHT22;74657;45.650;25.590;2024-03-08T10:23:57;17.80;59.90
46159;DHT22;74657;45.650;25.590;2024-03-08T10:26:21;19.40;57.60
46159;DHT22;74657;45.650;25.590;2024-03-08T10:28:45;19.80;56.10
46159;DHT22;74657;45.650;25.590;2024-03-08T10:31:11;19.20;56.50
46159;DHT22;74657;45.650;25.590;2024-03-08T10:33:39;18.10;57.00
46159;DHT22;74657;45.650;25.590;2024-03-08T10:36:02;17.30;57.30
46159;DHT22;74657;45.650;25.590;2024-03-08T10:38:26;16.60;58.60
46159;DHT22;74657;45.650;25.590;2024-03-08T10:40:54;16.20;59.80
46159;DHT22;74657;45.650;25.590;2024-03-08T10:43:22;16.20;59.90
46159;DHT22;74657;45.650;25.590;2024-03-08T10:45:49;15.70;59.80
46159;DHT22;74657;45.650;25.590;2024-03-08T10:48:28;15.30;59.70
46159;DHT22;74657;45.650;25.590;2024-03-08T10:50:59;14.90;60.80
46159;DHT22;74657;45.650;25.590;2024-03-08T10:53:23;14.40;60.60
46159;DHT22;74657;45.650;25.590;2024-03-08T10:55:49;14.30;61.20
46159;DHT22;74657;45.650;25.590;2024-03-08T10:58:15;14.20;61.70
46159;DHT22;74657;45.650;25.590;2024-03-08T11:00:39;14.00;61.70
46159;DHT22;74657;45.650;25.590;2024-03-08T11:03:03;13.90;64.60
46159;DHT22;74657;45.650;25.590;2024-03-08T11:05:37;13.80;64.00
46159;DHT22;74657;45.650;25.590;2024-03-08T11:08:16;14.00;64.10
46159;DHT22;74657;45.650;25.590;2024-03-08T11:10:47;14.10;62.90
46159;DHT22;74657;45.650;25.590;2024-03-08T11:13:34;15.10;61.30
46159;DHT22;74657;45.650;25.590;2024-03-08T11:15:59;16.40;60.60
46159;DHT22;74657;45.650;25.590;2024-03-08T11:18:23;17.40;57.80
46159;DHT22;74657;45.650;25.590;2024-03-08T11:20:49;18.30;56.00
46159;DHT22;74657;45.650;25.590;2024-03-08T11:23:12;22.00;52.60
46159;DHT22;74657;45.650;25.590;2024-03-08T11:25:37;24.90;48.80
46159;DHT22;74657;45.650;25.590;2024-03-08T11:28:15;25.70;46.90
46159;DHT22;74657;45.650;25.590;2024-03-08T11:30:43;25.70;45.70
46159;DHT22;74657;45.650;25.590;2024-03-08T11:33:05;26.60;45.10
46159;DHT22;74657;45.650;25.590;2024-03-08T11:35:34;25.90;42.90
46159;DHT22;74657;45.650;25.590;2024-03-08T11:38:00;25.80;42.90
46159;DHT22;74657;45.650;25.590;2024-03-08T11:40:24;24.10;44.50
46159;DHT22;74657;45.650;25.590;2024-03-08T11:42:48;22.10;47.00
46159;DHT22;74657;45.650;25.590;2024-03-08T11:45:13;19.90;48.70
46159;DHT22;74657;45.650;25.590;2024-03-08T11:47:38;18.30;51.90
46159;DHT22;74657;45.650;25.590;2024-03-08T11:50:01;17.40;53.00
46159;DHT22;74657;45.650;25.590;2024-03-08T11:52:25;16.30;54.20
46159;DHT22;74657;45.650;25.590;2024-03-08T11:54:52;17.30;53.30
46159;DHT22;74657;45.650;25.590;2024-03-08T11:57:20;19.10;51.50
46159;DHT22;74657;45.650;25.590;2024-03-08T11:59:50;19.60;50.10
46159;DHT22;74657;45.650;25.590;2024-03-08T12:02:18;18.10;52.00
46159;DHT22;74657;45.650;25.590;2024-03-08T12:04:41;16.80;53.80
46159;DHT22;74657;45.650;25.590;2024-03-08T12:07:10;16.00;55.60
46159;DHT22;74657;45.650;25.590;2024-03-08T12:09:36;15.80;55.80
46159;DHT22;74657;45.650;25.590;2024-03-08T12:12:00;16.30;55.20
46159;DHT22;74657;45.650;25.590;2024-03-08T12:14:24;16.20;53.70
46159;DHT22;74657;45.650;25.590;2024-03-08T12:16:48;16.10;54.10
46159;DHT22;74657;45.650;25.590;2024-03-08T12:19:13;16.10;54.10
46159;DHT22;74657;45.650;25.590;2024-03-08T12:21:36;16.50;54.90
46159;DHT22;74657;45.650;25.590;2024-03-08T12:24:09;16.20;54.80
46159;DHT22;74657;45.650;25.590;2024-03-08T12:26:32;15.90;55.60
46159;DHT22;74657;45.650;25.590;2024-03-08T12:29:15;15.40;55.80
46159;DHT22;74657;45.650;25.590;2024-03-08T12:31:40;14.70;57.80
46159;DHT22;74657;45.650;25.590;2024-03-08T12:34:04;14.00;58.80
46159;DHT22;74657;45.650;25.590;2024-03-08T12:36:28;13.50;60.30
46159;DHT22;74657;45.650;25.590;2024-03-08T12:38:54;13.20;60.70
46159;DHT22;74657;45.650;25.590;2024-03-08T12:41:18;12.90;61.40
46159;DHT22;74657;45.650;25.590;2024-03-08T12:43:42;12.60;62.50
46159;DHT22;74657;45.650;25.590;2024-03-08T12:46:11;12.30;63.00
46159;DHT22;74657;45.650;25.590;2024-03-08T12:48:35;12.10;62.30
46159;DHT22;74657;45.650;25.590;2024-03-08T12:51:02;11.90;62.70
46159;DHT22;74657;45.650;25.590;2024-03-08T12:53:25;11.70;63.50
46159;DHT22;74657;45.650;25.590;2024-03-08T12:55:50;11.40;63.60
46159;DHT22;74657;45.650;25.590;2024-03-08T12:58:14;11.30;63.50
46159;DHT22;74657;45.650;25.590;2024-03-08T13:00:38;11.00;65.10
46159;DHT22;74657;45.650;25.590;2024-03-08T13:03:06;11.20;64.10
46159;DHT22;74657;45.650;25.590;2024-03-08T13:05:32;11.30;64.70
46159;DHT22;74657;45.650;25.590;2024-03-08T13:07:59;11.40;65.70
46159;DHT22;74657;45.650;25.590;2024-03-08T13:10:22;11.40;65.80
46159;DHT22;74657;45.650;25.590;2024-03-08T13:12:46;11.30;65.60
46159;DHT22;74657;45.650;25.590;2024-03-08T13:15:14;11.20;66.20
46159;DHT22;74657;45.650;25.590;2024-03-08T13:17:42;10.90;66.50
46159;DHT22;74657;45.650;25.590;2024-03-08T13:20:09;10.60;67.50
46159;DHT22;74657;45.650;25.590;2024-03-08T13:22:46;10.40;66.80
46159;DHT22;74657;45.650;25.590;2024-03-08T13:25:10;10.30;67.20
46159;DHT22;74657;45.650;25.590;2024-03-08T13:27:35;10.20;68.50
46159;DHT22;74657;45.650;25.590;2024-03-08T13:29:58;10.10;68.10
46159;DHT22;74657;45.650;25.590;2024-03-08T13:32:22;10.10;69.00
46159;DHT22;74657;45.650;25.590;2024-03-08T13:34:47;10.10;68.90
46159;DHT22;74657;45.650;25.590;2024-03-08T13:37:14;10.10;69.60
46159;DHT22;74657;45.650;25.590;2024-03-08T13:39:38;10.10;69.10
46159;DHT22;74657;45.650;25.590;2024-03-08T13:42:06;10.10;69.20
46159;DHT22;74657;45.650;25.590;2024-03-08T13:44:31;10.10;70.00
46159;DHT22;74657;45.650;25.590;2024-03-08T13:46:54;10.00;69.00
46159;DHT22;74657;45.650;25.590;2024-03-08T13:49:19;10.00;69.60
46159;DHT22;74657;45.650;25.590;2024-03-08T13:51:43;10.10;70.00
46159;DHT22;74657;45.650;25.590;2024-03-08T13:54:08;10.10;70.20
46159;DHT22;74657;45.650;25.590;2024-03-08T13:56:32;10.10;69.50
46159;DHT22;74657;45.650;25.590;2024-03-08T13:58:55;9.90;69.30
46159;DHT22;74657;45.650;25.590;2024-03-08T14:01:19;9.70;69.20
46159;DHT22;74657;45.650;25.590;2024-03-08T14:03:42;9.70;69.50
46159;DHT22;74657;45.650;25.590;2024-03-08T14:06:07;9.70;69.80
46159;DHT22;74657;45.650;25.590;2024-03-08T14:08:31;9.60;68.90
46159;DHT22;74657;45.650;25.590;2024-03-08T14:10:56;9.50;69.50
46159;DHT22;74657;45.650;25.590;2024-03-08T14:13:20;9.50;70.20
46159;DHT22;74657;45.650;25.590;2024-03-08T14:15:43;9.60;71.30
46159;DHT22;74657;45.650;25.590;2024-03-08T14:18:07;9.40;69.80
46159;DHT22;74657;45.650;25.590;2024-03-08T14:20:31;9.30;71.80
46159;DHT22;74657;45.650;25.590;2024-03-08T14:22:55;9.40;72.20
46159;DHT22;74657;45.650;25.590;2024-03-08T14:25:19;9.40;71.10
46159;DHT22;74657;45.650;25.590;2024-03-08T14:27:47;9.40;72.00
46159;DHT22;74657;45.650;25.590;2024-03-08T14:30:12;9.30;72.20
46159;DHT22;74657;45.650;25.590;2024-03-08T14:32:41;9.20;72.40
46159;DHT22;74657;45.650;25.590;2024-03-08T14:35:06;9.10;71.90
46159;DHT22;74657;45.650;25.590;2024-03-08T14:37:29;9.00;72.00
46159;DHT22;74657;45.650;25.590;2024-03-08T14:39:53;8.90;73.50
46159;DHT22;74657;45.650;25.590;2024-03-08T14:42:17;8.90;73.70
46159;DHT22;74657;45.650;25.590;2024-03-08T14:44:45;8.80;74.10
46159;DHT22;74657;45.650;25.590;2024-03-08T14:47:12;8.80;74.00
46159;DHT22;74657;45.650;25.590;2024-03-08T14:49:35;8.70;74.20
46159;DHT22;74657;45.650;25.590;2024-03-08T14:52:00;8.70;73.90
46159;DHT22;74657;45.650;25.590;2024-03-08T14:54:23;8.70;74.60
46159;DHT22;74657;45.650;25.590;2024-03-08T14:56:47;8.70;74.60
46159;DHT22;74657;45.650;25.590;2024-03-08T14:59:12;8.60;74.50
46159;DHT22;74657;45.650;25.590;2024-03-08T15:01:37;8.60;74.90
46159;DHT22;74657;45.650;25.590;2024-03-08T15:04:00;8.60;75.00
46159;DHT22;74657;45.650;25.590;2024-03-08T15:06:30;8.50;73.70
46159;DHT22;74657;45.650;25.590;2024-03-08T15:08:55;8.40;74.50
46159;DHT22;74657;45.650;25.590;2024-03-08T15:11:19;8.40;73.80